createdAt,value
2019-04-03T00:01:26.328Z,11.13
2019-04-03T00:03:56.375Z,11.01
2019-04-03T00:06:26.408Z,10.91
2019-04-03T00:08:56.478Z,10.85
2019-04-03T00:11:26.614Z,10.81
2019-04-03T00:13:56.688Z,10.76
2019-04-03T00:16:26.728Z,10.72
2019-04-03T00:18:56.904Z,10.66
2019-04-03T00:21:26.911Z,10.65
2019-04-03T00:23:57.147Z,10.59
2019-04-03T00:26:30.351Z,10.56
2019-04-03T00:28:59.522Z,10.44
2019-04-03T00:31:29.664Z,10.49
2019-04-03T00:33:59.804Z,10.41
2019-04-03T00:36:29.997Z,10.37
2019-04-03T00:39:00.140Z,10.32
2019-04-03T00:41:30.240Z,10.28
2019-04-03T00:44:00.289Z,10.26
2019-04-03T00:46:30.367Z,10.21
2019-04-03T00:49:00.389Z,10.20
2019-04-03T00:51:30.425Z,10.10
2019-04-03T00:54:00.497Z,10.05
2019-04-03T00:56:30.537Z,9.99
2019-04-03T00:59:00.605Z,9.94
2019-04-03T01:01:30.676Z,9.85
2019-04-03T01:04:00.729Z,9.76
2019-04-03T01:06:30.845Z,9.61
2019-04-03T01:09:00.849Z,9.53
2019-04-03T01:11:31.141Z,9.45
2019-04-03T01:14:01.561Z,9.38
2019-04-03T01:16:33.017Z,9.34
2019-04-03T01:19:05.754Z,9.27
2019-04-03T01:21:37.245Z,9.23
2019-04-03T01:24:08.372Z,9.20
2019-04-03T01:26:40.181Z,9.16
2019-04-03T01:29:10.623Z,9.11
2019-04-03T01:31:42.818Z,9.09
2019-04-03T01:34:15.640Z,9.06
2019-04-03T01:36:46.581Z,9.04
2019-04-03T01:39:19.140Z,9.03
2019-04-03T01:41:51.087Z,9.02
2019-04-03T01:44:22.562Z,9.03
2019-04-03T01:46:52.998Z,9.05
2019-04-03T01:49:23.049Z,9.05
2019-04-03T01:51:53.082Z,9.03
2019-04-03T01:54:23.081Z,9.03
2019-04-03T01:56:53.176Z,9.07
2019-04-03T01:59:23.403Z,9.13
2019-04-03T02:01:53.439Z,9.19
2019-04-03T02:04:23.504Z,9.24
2019-04-03T02:06:53.576Z,9.22
2019-04-03T02:09:23.647Z,9.03
2019-04-03T02:11:53.728Z,8.89
2019-04-03T02:14:23.780Z,8.80
2019-04-03T02:16:54.087Z,8.74
2019-04-03T02:19:26.266Z,8.66
2019-04-03T02:21:57.948Z,8.52
2019-04-03T02:24:27.898Z,8.39
2019-04-03T02:26:57.943Z,8.36
2019-04-03T02:29:28.047Z,8.39
2019-04-03T02:31:59.154Z,8.42
2019-04-03T02:34:33.403Z,8.43
2019-04-03T02:37:01.562Z,8.43
2019-04-03T02:39:31.598Z,8.35
2019-04-03T02:42:02.052Z,8.33
2019-04-03T02:44:32.358Z,8.35
2019-04-03T02:47:02.424Z,8.35
2019-04-03T02:49:32.494Z,8.39
2019-04-03T02:52:02.527Z,8.49
2019-04-03T02:54:35.042Z,8.58
2019-04-03T02:57:04.325Z,8.63
2019-04-03T02:59:34.346Z,8.65
2019-04-03T03:02:04.367Z,8.72
2019-04-03T03:04:34.863Z,8.79
2019-04-03T03:07:05.540Z,8.85
2019-04-03T03:09:35.970Z,8.90
2019-04-03T03:12:06.359Z,8.98
2019-04-03T03:14:39.346Z,8.99
2019-04-03T03:17:08.960Z,9.05
2019-04-03T03:19:39.191Z,9.11
2019-04-03T03:22:09.395Z,9.14
2019-04-03T03:24:39.703Z,9.16
2019-04-03T03:27:10.329Z,9.19
2019-04-03T03:29:40.613Z,9.22
2019-04-03T03:32:18.695Z,9.23
2019-04-03T03:34:53.193Z,9.23
2019-04-03T03:37:15.684Z,9.19
2019-04-03T03:39:45.945Z,9.16
2019-04-03T03:42:16.332Z,9.15
2019-04-03T03:44:47.006Z,9.16
2019-04-03T03:47:17.652Z,9.19
2019-04-03T03:49:49.697Z,9.22
2019-04-03T03:52:19.526Z,9.23
2019-04-03T03:54:51.555Z,9.24
2019-04-03T03:57:21.789Z,9.27
2019-04-03T03:59:52.909Z,9.30
2019-04-03T04:02:23.642Z,9.29
2019-04-03T04:04:53.816Z,9.28
2019-04-03T04:07:24.039Z,9.25
2019-04-03T04:09:54.179Z,9.20
2019-04-03T04:12:24.521Z,9.14
2019-04-03T04:14:56.526Z,9.16
2019-04-03T04:17:26.728Z,9.16
2019-04-03T04:19:56.839Z,9.17
2019-04-03T04:22:28.166Z,9.19
2019-04-03T04:24:59.580Z,9.19
2019-04-03T04:27:33.097Z,9.20
2019-04-03T04:30:02.293Z,9.20
2019-04-03T04:32:32.438Z,9.09
2019-04-03T04:35:02.470Z,9.18
2019-04-03T04:37:32.671Z,9.16
2019-04-03T04:40:02.657Z,9.16
2019-04-03T04:42:34.496Z,9.13
2019-04-03T04:45:04.780Z,9.01
2019-04-03T04:47:34.779Z,8.95
2019-04-03T04:50:05.010Z,8.95
2019-04-03T04:52:35.047Z,8.95
2019-04-03T04:55:05.323Z,8.93
2019-04-03T04:57:35.335Z,8.96
2019-04-03T05:00:06.556Z,8.98
2019-04-03T05:02:36.627Z,8.98
2019-04-03T05:05:09.001Z,8.95
2019-04-03T05:07:39.001Z,8.94
2019-04-03T05:10:09.554Z,8.90
2019-04-03T05:12:42.613Z,8.90
2019-04-03T05:15:11.452Z,8.89
2019-04-03T05:17:41.666Z,8.89
2019-04-03T05:20:11.806Z,8.88
2019-04-03T05:22:41.854Z,8.85
2019-04-03T05:25:12.125Z,8.80
2019-04-03T05:27:42.202Z,8.77
2019-04-03T05:30:12.503Z,8.75
2019-04-03T05:32:45.449Z,8.73
2019-04-03T05:35:15.575Z,8.74
2019-04-03T05:37:45.795Z,8.73
2019-04-03T05:40:15.761Z,8.79
2019-04-03T05:42:45.805Z,8.81
2019-04-03T05:45:15.851Z,8.84
2019-04-03T05:47:45.868Z,8.85
2019-04-03T05:50:16.891Z,8.87
2019-04-03T05:52:46.996Z,8.90
2019-04-03T05:55:17.219Z,8.93
2019-04-03T05:57:47.205Z,8.99
2019-04-03T06:00:17.254Z,9.03
2019-04-03T06:02:47.412Z,9.05
2019-04-03T06:05:19.285Z,9.08
2019-04-03T06:07:49.814Z,9.10
2019-04-03T06:10:20.358Z,9.15
2019-04-03T06:12:50.411Z,9.17
2019-04-03T06:15:22.048Z,9.14
2019-04-03T06:17:54.259Z,9.12
2019-04-03T06:20:24.206Z,9.12
2019-04-03T06:22:54.184Z,9.14
2019-04-03T06:25:24.272Z,9.13
2019-04-03T06:27:54.296Z,9.18
2019-04-03T06:30:25.747Z,9.25
2019-04-03T06:32:56.415Z,9.29
2019-04-03T06:35:26.701Z,9.34
2019-04-03T06:37:56.914Z,9.41
2019-04-03T06:40:26.867Z,9.46
2019-04-03T06:42:56.914Z,9.51
2019-04-03T06:45:27.164Z,9.59
2019-04-03T06:47:57.133Z,9.66
2019-04-03T06:50:27.229Z,9.72
2019-04-03T06:52:58.107Z,9.83
2019-04-03T06:55:28.152Z,9.92
2019-04-03T06:57:58.142Z,10.00
2019-04-03T07:00:28.195Z,10.12
2019-04-03T07:02:58.255Z,10.25
2019-04-03T07:05:28.435Z,10.34
2019-04-03T07:08:00.661Z,10.43
2019-04-03T07:10:30.598Z,10.51
2019-04-03T07:13:00.835Z,10.58
2019-04-03T07:15:30.878Z,10.65
2019-04-03T07:18:01.800Z,10.68
2019-04-03T07:20:33.007Z,10.73
2019-04-03T07:23:03.195Z,10.76
2019-04-03T07:25:34.021Z,10.78
2019-04-03T07:28:04.722Z,10.79
2019-04-03T07:30:34.817Z,10.82
2019-04-03T07:33:05.796Z,10.84
2019-04-03T07:35:39.135Z,10.88
2019-04-03T07:38:08.402Z,10.91
2019-04-03T07:40:38.631Z,10.94
2019-04-03T07:43:09.022Z,10.96
2019-04-03T07:45:39.077Z,11.05
2019-04-03T07:48:09.130Z,11.08
2019-04-03T07:50:39.780Z,11.12
2019-04-03T07:53:10.978Z,11.17
2019-04-03T07:55:43.718Z,11.23
2019-04-03T07:58:13.057Z,11.30
2019-04-03T08:00:43.082Z,11.36
2019-04-03T08:03:13.224Z,11.42
2019-04-03T08:05:43.353Z,11.41
2019-04-03T08:08:13.471Z,11.41
2019-04-03T08:10:43.717Z,11.46
2019-04-03T08:13:13.843Z,11.49
2019-04-03T08:15:44.494Z,11.55
2019-04-03T08:18:15.407Z,11.63
2019-04-03T08:20:45.560Z,11.74
2019-04-03T08:23:16.565Z,11.85
2019-04-03T08:25:48.436Z,11.96
2019-04-03T08:28:19.344Z,12.07
2019-04-03T08:30:49.358Z,12.17
2019-04-03T08:33:25.487Z,12.25
2019-04-03T08:35:51.156Z,12.33
2019-04-03T08:38:21.612Z,12.45
2019-04-03T08:40:53.338Z,12.55
2019-04-03T08:43:23.705Z,12.62
2019-04-03T08:45:53.944Z,12.72
2019-04-03T08:48:24.216Z,12.80
2019-04-03T08:50:54.337Z,12.92
2019-04-03T08:53:24.539Z,12.94
2019-04-03T08:55:56.574Z,13.09
2019-04-03T08:58:26.784Z,13.16
2019-04-03T09:01:04.146Z,13.22
2019-04-03T09:03:36.024Z,13.26
2019-04-03T09:06:07.980Z,13.33
2019-04-03T09:08:38.205Z,13.47
2019-04-03T09:11:09.935Z,13.59
2019-04-03T09:13:40.393Z,13.70
2019-04-03T09:16:11.028Z,13.77
2019-04-03T09:18:41.337Z,13.95
2019-04-03T09:21:14.284Z,14.10
2019-04-03T09:23:43.295Z,14.19
2019-04-03T09:26:13.440Z,14.29
2019-04-03T09:28:43.826Z,14.40
2019-04-03T09:31:13.925Z,14.42
2019-04-03T09:33:44.022Z,14.46
2019-04-03T09:36:14.134Z,14.47
2019-04-03T09:38:44.304Z,14.53
2019-04-03T09:41:14.474Z,14.50
2019-04-03T09:43:44.581Z,14.54
2019-04-03T09:46:14.846Z,14.66
2019-04-03T09:48:45.314Z,14.76
2019-04-03T09:51:17.610Z,14.82
2019-04-03T09:53:47.518Z,15.01
2019-04-03T09:56:17.683Z,15.25
2019-04-03T09:58:48.095Z,15.38
2019-04-03T10:01:18.996Z,15.42
2019-04-03T10:03:51.999Z,15.41
2019-04-03T10:06:22.214Z,15.50
2019-04-03T10:08:52.472Z,15.60
2019-04-03T10:11:22.513Z,15.72
2019-04-03T10:13:52.576Z,15.86
2019-04-03T10:16:23.032Z,15.89
2019-04-03T10:18:53.585Z,16.03
2019-04-03T10:21:23.698Z,16.12
2019-04-03T10:23:54.119Z,16.12
2019-04-03T10:26:24.386Z,16.13
2019-04-03T10:28:54.860Z,16.18
2019-04-03T10:31:25.010Z,16.21
2019-04-03T10:33:55.274Z,16.38
2019-04-03T10:36:25.333Z,16.46
2019-04-03T10:38:55.393Z,16.49
2019-04-03T10:41:27.706Z,16.50
2019-04-03T10:43:58.242Z,16.51
2019-04-03T10:46:29.705Z,16.51
2019-04-03T10:49:00.881Z,16.57
2019-04-03T10:51:31.872Z,16.68
2019-04-03T10:54:02.067Z,16.76
2019-04-03T10:56:32.730Z,16.83
2019-04-03T10:59:10.282Z,16.91
2019-04-03T11:01:34.807Z,16.98
2019-04-03T11:04:06.039Z,17.10
2019-04-03T11:06:37.515Z,17.21
2019-04-03T11:09:10.366Z,17.21
2019-04-03T11:11:42.970Z,17.32
2019-04-03T11:14:12.386Z,17.43
2019-04-03T11:16:45.980Z,17.50
2019-04-03T11:19:15.303Z,17.56
2019-04-03T11:21:45.568Z,17.59
2019-04-03T11:24:15.607Z,17.72
2019-04-03T11:26:46.216Z,17.72
2019-04-03T11:29:16.357Z,17.78
2019-04-03T11:31:46.658Z,17.83
2019-04-03T11:34:18.313Z,17.79
2019-04-03T11:36:48.768Z,17.86
2019-04-03T11:39:19.039Z,18.05
2019-04-03T11:41:49.112Z,18.06
2019-04-03T11:44:19.302Z,18.07
2019-04-03T11:46:49.321Z,18.12
2019-04-03T11:49:20.019Z,18.17
2019-04-03T11:51:51.087Z,18.16
2019-04-03T11:54:23.470Z,18.22
2019-04-03T11:56:56.268Z,18.35
2019-04-03T11:59:25.459Z,18.47
2019-04-03T12:01:55.579Z,18.51
2019-04-03T12:04:25.826Z,18.49
2019-04-03T12:06:55.773Z,18.45
2019-04-03T12:09:25.968Z,18.59
2019-04-03T12:11:56.002Z,18.68
2019-04-03T12:14:26.386Z,18.80
2019-04-03T12:16:58.319Z,18.90
2019-04-03T12:19:28.579Z,18.93
2019-04-03T12:21:58.740Z,18.96
2019-04-03T12:24:28.838Z,19.15
2019-04-03T12:27:01.545Z,19.20
2019-04-03T12:29:32.076Z,19.14
2019-04-03T12:32:04.027Z,19.15
2019-04-03T12:34:36.739Z,19.21
2019-04-03T12:37:07.226Z,19.20
2019-04-03T12:39:37.652Z,19.29
2019-04-03T12:42:08.736Z,19.27
2019-04-03T12:44:39.907Z,19.44
2019-04-03T12:47:12.445Z,19.59
2019-04-03T12:49:42.392Z,19.63
2019-04-03T12:52:12.547Z,19.54
2019-04-03T12:54:42.649Z,19.55
2019-04-03T12:57:12.693Z,19.63
2019-04-03T12:59:42.844Z,19.52
2019-04-03T13:02:12.903Z,19.47
2019-04-03T13:04:43.069Z,19.47
2019-04-03T13:07:14.484Z,19.64
2019-04-03T13:09:44.664Z,19.90
2019-04-03T13:12:15.171Z,19.88
2019-04-03T13:14:45.345Z,19.72
2019-04-03T13:17:15.469Z,19.81
2019-04-03T13:19:45.613Z,19.99
2019-04-03T13:22:18.028Z,20.11
2019-04-03T13:24:50.153Z,20.24
2019-04-03T13:27:20.917Z,20.24
2019-04-03T13:29:51.478Z,20.24
2019-04-03T13:32:23.071Z,20.21
2019-04-03T13:34:53.230Z,20.21
2019-04-03T13:37:23.897Z,20.25
2019-04-03T13:39:55.312Z,20.36
2019-04-03T13:42:25.394Z,20.38
2019-04-03T13:44:56.502Z,20.24
2019-04-03T13:47:27.475Z,20.17
2019-04-03T13:49:57.551Z,20.23
2019-04-03T13:52:39.232Z,20.29
2019-04-03T13:54:59.391Z,20.41
2019-04-03T13:57:29.518Z,20.35
2019-04-03T14:00:01.654Z,20.46
2019-04-03T14:02:31.347Z,20.46
2019-04-03T14:05:01.841Z,20.62
2019-04-03T14:07:32.228Z,20.72
2019-04-03T14:10:02.284Z,20.78
2019-04-03T14:12:32.352Z,20.82
2019-04-03T14:15:04.356Z,20.87
2019-04-03T14:17:36.297Z,20.82
2019-04-03T14:20:08.189Z,20.95
2019-04-03T14:22:38.374Z,20.92
2019-04-03T14:25:19.815Z,21.13
2019-04-03T14:27:40.623Z,21.35
2019-04-03T14:30:12.177Z,21.62
2019-04-03T14:32:44.989Z,21.56
2019-04-03T14:35:42.000Z,21.49
2019-04-03T14:37:46.619Z,21.34
2019-04-03T14:40:16.935Z,21.27
2019-04-03T14:42:46.996Z,21.26
2019-04-03T14:45:17.871Z,21.30
2019-04-03T14:47:47.997Z,21.33
2019-04-03T14:50:18.121Z,21.23
2019-04-03T14:52:49.509Z,21.19
2019-04-03T14:55:22.641Z,20.98
2019-04-03T14:57:55.042Z,20.70
2019-04-03T15:00:28.679Z,20.70
2019-04-03T15:02:57.524Z,20.65
2019-04-03T15:05:27.739Z,20.60
2019-04-03T15:07:57.812Z,20.64
2019-04-03T15:10:30.740Z,20.51
2019-04-03T15:13:00.523Z,20.43
2019-04-03T15:15:30.648Z,20.37
2019-04-03T15:18:01.090Z,20.24
2019-04-03T15:20:33.455Z,20.26
2019-04-03T15:23:05.241Z,20.27
2019-04-03T15:25:35.248Z,20.19
2019-04-03T15:28:06.044Z,20.15
2019-04-03T15:30:36.367Z,19.99
2019-04-03T15:33:06.919Z,19.80
2019-04-03T15:35:37.062Z,19.77
2019-04-03T15:38:07.559Z,19.80
2019-04-03T15:40:37.604Z,19.79
2019-04-03T15:43:10.370Z,19.71
2019-04-03T15:45:40.329Z,19.66
2019-04-03T15:48:10.473Z,19.53
2019-04-03T15:50:41.000Z,19.41
2019-04-03T15:53:12.542Z,19.39
2019-04-03T15:55:42.645Z,19.28
2019-04-03T15:58:12.739Z,19.14
2019-04-03T16:00:43.458Z,19.05
2019-04-03T16:03:16.356Z,19.05
2019-04-03T16:05:46.449Z,19.08
2019-04-03T16:08:16.767Z,19.01
2019-04-03T16:10:47.099Z,18.84
2019-04-03T16:13:17.585Z,18.71
2019-04-03T16:15:47.996Z,18.63
2019-04-03T16:18:20.098Z,18.51
2019-04-03T16:20:50.829Z,18.44
2019-04-03T16:23:21.830Z,18.30
2019-04-03T16:25:54.454Z,18.19
2019-04-03T16:28:24.746Z,18.16
2019-04-03T16:30:54.931Z,18.08
2019-04-03T16:33:25.579Z,18.00
2019-04-03T16:35:56.286Z,17.93
2019-04-03T16:38:28.532Z,17.85
2019-04-03T16:40:58.586Z,17.76
2019-04-03T16:43:29.854Z,17.70
2019-04-03T16:46:00.241Z,17.63
2019-04-03T16:48:31.191Z,17.57
2019-04-03T16:51:01.611Z,17.45
2019-04-03T16:53:32.570Z,17.33
2019-04-03T16:56:05.883Z,17.27
2019-04-03T16:58:35.217Z,17.24
2019-04-03T17:01:05.692Z,17.20
2019-04-03T17:03:36.453Z,17.11
2019-04-03T17:06:07.167Z,17.03
2019-04-03T17:08:37.468Z,16.99
2019-04-03T17:11:07.932Z,16.98
2019-04-03T17:13:38.563Z,16.95
2019-04-03T17:16:08.816Z,16.96
2019-04-03T17:18:39.343Z,16.92
2019-04-03T17:21:09.816Z,16.85
2019-04-03T17:23:39.978Z,16.82
2019-04-03T17:26:10.797Z,16.78
2019-04-03T17:28:41.763Z,16.71
2019-04-03T17:31:12.185Z,16.65
2019-04-03T17:33:43.734Z,16.62
2019-04-03T17:36:14.137Z,16.61
2019-04-03T17:38:47.185Z,16.54
2019-04-03T17:41:17.342Z,16.48
2019-04-03T17:43:47.552Z,16.43
2019-04-03T17:46:18.245Z,16.38
2019-04-03T17:48:49.985Z,16.32
2019-04-03T17:51:21.309Z,16.26
2019-04-03T17:53:51.741Z,16.17
2019-04-03T17:56:22.051Z,16.09
2019-04-03T17:58:52.440Z,16.01
2019-04-03T18:01:23.413Z,15.98
2019-04-03T18:03:56.524Z,15.93
2019-04-03T18:06:27.936Z,15.89
2019-04-03T18:08:58.722Z,15.85
2019-04-03T18:11:29.404Z,15.78
2019-04-03T18:13:59.732Z,15.71
2019-04-03T18:16:30.312Z,15.66
2019-04-03T18:19:00.750Z,15.64
2019-04-03T18:21:31.956Z,15.59
2019-04-03T18:24:02.139Z,15.55
2019-04-03T18:26:32.548Z,15.52
2019-04-03T18:29:03.036Z,15.48
2019-04-03T18:31:33.470Z,15.43
2019-04-03T18:34:03.935Z,15.39
2019-04-03T18:36:34.333Z,15.37
2019-04-03T18:39:07.811Z,15.35
2019-04-03T18:41:39.714Z,15.30
2019-04-03T18:44:21.638Z,15.27
2019-04-03T18:46:42.218Z,15.22
2019-04-03T18:49:12.697Z,15.22
2019-04-03T18:51:43.155Z,15.20
2019-04-03T18:54:13.768Z,15.20
2019-04-03T18:56:45.590Z,15.17
2019-04-03T18:59:16.021Z,15.13
2019-04-03T19:01:46.150Z,15.12
2019-04-03T19:04:16.506Z,15.06
2019-04-03T19:06:46.818Z,15.00
2019-04-03T19:09:17.210Z,14.92
2019-04-03T19:11:47.676Z,14.86
2019-04-03T19:14:27.117Z,14.83
2019-04-03T19:16:52.504Z,14.79
2019-04-03T19:19:23.618Z,14.75
2019-04-03T19:21:54.619Z,14.72
2019-04-03T19:24:25.784Z,14.71
2019-04-03T19:26:56.228Z,14.68
2019-04-03T19:29:26.414Z,14.68
2019-04-03T19:31:56.768Z,14.67
2019-04-03T19:34:27.043Z,14.65
2019-04-03T19:36:57.343Z,14.62
2019-04-03T19:39:28.468Z,14.58
2019-04-03T19:41:59.346Z,14.46
2019-04-03T19:44:29.528Z,14.46
2019-04-03T19:47:02.434Z,14.41
2019-04-03T19:49:32.710Z,14.36
2019-04-03T19:52:03.042Z,14.30
2019-04-03T19:54:33.264Z,14.25
2019-04-03T19:57:04.721Z,14.20
2019-04-03T19:59:34.903Z,14.17
2019-04-03T20:02:05.376Z,14.18
2019-04-03T20:04:35.834Z,14.16
2019-04-03T20:07:06.072Z,14.12
2019-04-03T20:09:36.354Z,14.10
2019-04-03T20:12:18.470Z,14.07
2019-04-03T20:14:58.180Z,14.07
2019-04-03T20:17:20.444Z,14.05
2019-04-03T20:19:50.603Z,14.03
2019-04-03T20:22:20.733Z,14.00
2019-04-03T20:24:59.805Z,13.98
2019-04-03T20:27:23.489Z,13.97
2019-04-03T20:29:54.712Z,13.95
2019-04-03T20:32:24.929Z,13.89
2019-04-03T20:34:55.132Z,13.85
2019-04-03T20:37:26.196Z,13.81
2019-04-03T20:39:59.584Z,13.64
2019-04-03T20:42:29.061Z,13.27
2019-04-03T20:44:59.151Z,12.95
2019-04-03T20:47:29.314Z,12.78
2019-04-03T20:49:59.585Z,12.70
2019-04-03T20:52:30.696Z,12.67
2019-04-03T20:55:01.779Z,12.68
2019-04-03T20:57:33.359Z,12.62
2019-04-03T21:00:03.719Z,12.22
2019-04-03T21:02:34.786Z,11.64
2019-04-03T21:05:07.594Z,11.15
2019-04-03T21:07:36.845Z,10.76
2019-04-03T21:10:07.661Z,10.46
2019-04-03T21:12:39.274Z,10.25
2019-04-03T21:15:09.579Z,10.11
2019-04-03T21:17:41.213Z,9.94
2019-04-03T21:20:11.404Z,9.74
2019-04-03T21:22:41.432Z,9.67
2019-04-03T21:25:11.599Z,9.61
2019-04-03T21:27:41.689Z,9.62
2019-04-03T21:30:12.043Z,9.51
2019-04-03T21:32:42.141Z,9.43
2019-04-03T21:35:12.251Z,9.30
2019-04-03T21:37:42.353Z,9.08
2019-04-03T21:40:14.739Z,8.97
2019-04-03T21:42:44.115Z,8.95
2019-04-03T21:45:14.192Z,8.76
2019-04-03T21:47:44.256Z,8.57
2019-04-03T21:50:14.399Z,8.54
2019-04-03T21:52:44.419Z,8.47
2019-04-03T21:55:14.568Z,8.37
2019-04-03T21:57:44.662Z,8.31
2019-04-03T22:00:18.917Z,8.34
2019-04-03T22:02:49.837Z,8.30
2019-04-03T22:05:20.103Z,8.29
2019-04-03T22:07:50.432Z,8.29
2019-04-03T22:10:20.505Z,8.21
2019-04-03T22:12:50.565Z,8.17
2019-04-03T22:15:20.671Z,8.12
2019-04-03T22:17:52.355Z,8.12
2019-04-03T22:20:22.739Z,8.06
2019-04-03T22:22:52.799Z,8.06
2019-04-03T22:25:23.041Z,8.01
2019-04-03T22:27:53.198Z,7.99
2019-04-03T22:30:23.374Z,7.95
2019-04-03T22:32:53.997Z,7.91
2019-04-03T22:35:27.898Z,7.92
2019-04-03T22:37:57.325Z,7.91
2019-04-03T22:40:27.548Z,7.84
2019-04-03T22:42:57.601Z,7.84
2019-04-03T22:45:27.677Z,7.87
2019-04-03T22:47:57.738Z,7.88
2019-04-03T22:50:27.839Z,7.84
2019-04-03T22:52:57.908Z,7.72
2019-04-03T22:55:28.065Z,7.67
2019-04-03T22:57:58.075Z,7.69
2019-04-03T23:00:28.116Z,7.60
2019-04-03T23:02:58.246Z,7.51
2019-04-03T23:05:28.246Z,7.52
2019-04-03T23:07:58.479Z,7.49
2019-04-03T23:10:34.181Z,7.45
2019-04-03T23:13:05.272Z,7.46
2019-04-03T23:15:35.365Z,7.45
2019-04-03T23:18:05.615Z,7.45
2019-04-03T23:20:35.661Z,7.44
2019-04-03T23:23:05.805Z,7.43
2019-04-03T23:25:35.974Z,7.44
2019-04-03T23:28:06.009Z,7.44
2019-04-03T23:30:36.129Z,7.40
2019-04-03T23:33:06.246Z,7.31
2019-04-03T23:35:36.339Z,7.26
2019-04-03T23:38:06.424Z,7.24
2019-04-03T23:40:36.488Z,7.28
2019-04-03T23:43:09.468Z,7.29
2019-04-03T23:45:39.614Z,7.31
2019-04-03T23:48:09.732Z,7.34
2019-04-03T23:50:39.875Z,7.35
2019-04-03T23:53:09.972Z,7.35
2019-04-03T23:55:40.273Z,7.33
2019-04-03T23:58:10.912Z,7.32
